Time;durP1;ratioP1;P1;durP2;ratioP2;P2;SDS_P1;SDS_P2;PMS_P1;PMS_P2;Temp;Humidity;BMP_temperature;BMP_pressure;BME280_temperature;BME280_humidity;BME280_pressure;Samples;Min_cycle;Max_cycle;Signal;HPM_P1;HPM_P2
2023/05/12 00:01:23;;;;;;;;;;;10.50;99.90;;;;;;5038451;28;19995;-61
2023/05/12 00:03:52;;;;;;;;;;;10.50;99.90;;;;;;5038772;28;19929;-61
2023/05/12 00:06:24;;;;;;;;;;;10.50;99.90;;;;;;5031698;28;19931;-61
2023/05/12 00:08:55;;;;;;;;;;;10.50;99.90;;;;;;5041479;28;19987;-61
2023/05/12 00:11:22;;;;;;;;;;;10.50;99.90;;;;;;5027337;28;19925;-61
2023/05/12 00:13:54;;;;;;;;;;;10.50;99.90;;;;;;5042456;28;19925;-61
2023/05/12 00:16:25;;;;;;;;;;;10.50;99.90;;;;;;5038665;28;19991;-61
2023/05/12 00:18:53;;;;;;;;;;;10.40;99.90;;;;;;5040504;28;19937;-61
2023/05/12 00:21:25;;;;;;;;;;;10.40;99.90;;;;;;5033702;28;20360;-60
2023/05/12 00:23:56;;;;;;;;;;;10.40;99.90;;;;;;5034762;28;19975;-61
2023/05/12 00:26:28;;;;;;;;;;;10.40;99.90;;;;;;5021615;28;19971;-61
2023/05/12 00:28:59;;;;;;;;;;;10.40;99.90;;;;;;5039040;28;19929;-61
2023/05/12 00:31:31;;;;;;;;;;;10.40;99.90;;;;;;5039991;28;19925;-61
2023/05/12 00:33:58;;;;;;;;;;;10.40;99.90;;;;;;5033772;28;19929;-61
2023/05/12 00:36:30;;;;;;;;;;;10.40;99.90;;;;;;5032920;28;19928;-61
2023/05/12 00:39:02;;;;;;;;;;;10.40;99.90;;;;;;5039088;28;20370;-61
2023/05/12 00:41:34;;;;;;;;;;;10.40;99.90;;;;;;5038391;28;20300;-61
2023/05/12 00:44:05;;;;;;;;;;;10.40;99.90;;;;;;5017443;28;19929;-61
2023/05/12 00:46:38;;;;;;;;;;;10.40;99.90;;;;;;5018954;28;19933;-61
2023/05/12 00:49:10;;;;;;;;;;;10.30;99.90;;;;;;5039562;28;19924;-61
2023/05/12 00:51:42;;;;;;;;;;;10.30;99.90;;;;;;5036336;28;19979;-61
2023/05/12 00:54:14;;;;;;;;;;;10.30;99.90;;;;;;5018312;28;20290;-61
2023/05/12 00:56:46;;;;;;;;;;;10.30;99.90;;;;;;5027958;28;19925;-60
2023/05/12 00:59:20;;;;;;;;;;;10.30;99.90;;;;;;5039102;28;20020;-61
2023/05/12 01:01:51;;;;;;;;;;;10.20;99.90;;;;;;5040899;28;19970;-61
2023/05/12 01:04:24;;;;;;;;;;;10.20;99.90;;;;;;5021756;28;20408;-61
2023/05/12 01:07:04;;;;;;;;;;;10.20;99.90;;;;;;5030042;28;20027;-61
2023/05/12 01:09:36;;;;;;;;;;;10.20;99.90;;;;;;5022171;28;20413;-61
2023/05/12 01:12:08;;;;;;;;;;;10.20;99.90;;;;;;5015479;28;19925;-61
2023/05/12 01:14:36;;;;;;;;;;;10.10;99.90;;;;;;5021229;28;20412;-61
2023/05/12 01:17:10;;;;;;;;;;;10.10;99.90;;;;;;5045625;28;19925;-61
2023/05/12 01:19:46;;;;;;;;;;;10.10;99.90;;;;;;5016835;28;19936;-61
2023/05/12 01:22:18;;;;;;;;;;;10.10;99.90;;;;;;5042270;28;19932;-61
2023/05/12 01:24:55;;;;;;;;;;;10.10;99.90;;;;;;5023031;28;19992;-60
2023/05/12 01:27:29;;;;;;;;;;;10.10;99.90;;;;;;5032022;28;20008;-61
2023/05/12 01:30:03;;;;;;;;;;;10.10;99.90;;;;;;5021473;28;20745;-59
2023/05/12 01:32:37;;;;;;;;;;;10.10;99.90;;;;;;5033937;28;19979;-61
2023/05/12 01:35:04;;;;;;;;;;;10.10;99.90;;;;;;5030452;28;19929;-61
2023/05/12 01:37:41;;;;;;;;;;;10.10;99.90;;;;;;5022738;28;19925;-61
2023/05/12 01:40:13;;;;;;;;;;;10.10;99.90;;;;;;5038126;28;19928;-61
2023/05/12 01:42:45;;;;;;;;;;;10.10;99.90;;;;;;5026464;28;19948;-61
2023/05/12 01:45:12;;;;;;;;;;;10.10;99.90;;;;;;5033673;28;19971;-61
2023/05/12 01:47:44;;;;;;;;;;;10.10;99.90;;;;;;5039067;28;20036;-61
2023/05/12 01:50:15;;;;;;;;;;;10.10;99.90;;;;;;5028213;28;19971;-61
2023/05/12 01:52:48;;;;;;;;;;;10.10;99.90;;;;;;5018996;28;19924;-61
2023/05/12 01:55:19;;;;;;;;;;;10.10;99.90;;;;;;5049335;28;19932;-61
2023/05/12 01:57:56;;;;;;;;;;;10.00;99.90;;;;;;5027599;28;19925;-61
2023/05/12 02:00:28;;;;;;;;;;;10.00;99.90;;;;;;5035419;28;19937;-61
2023/05/12 02:03:01;;;;;;;;;;;10.00;99.90;;;;;;5027731;28;20054;-61
2023/05/12 02:05:33;;;;;;;;;;;10.00;99.90;;;;;;5036817;28;19937;-61
2023/05/12 02:08:04;;;;;;;;;;;10.00;99.90;;;;;;5042694;28;19979;-61
2023/05/12 02:10:31;;;;;;;;;;;10.10;99.90;;;;;;5027674;28;19924;-61
2023/05/12 02:12:58;;;;;;;;;;;10.10;99.90;;;;;;5027544;28;19926;-61
2023/05/12 02:15:31;;;;;;;;;;;10.10;99.90;;;;;;5018976;28;19931;-61
2023/05/12 02:18:04;;;;;;;;;;;10.20;99.90;;;;;;5036391;28;20301;-61
2023/05/12 02:20:38;;;;;;;;;;;10.20;99.90;;;;;;5043592;28;19951;-61
2023/05/12 02:23:09;;;;;;;;;;;10.20;99.90;;;;;;5030765;28;19975;-61
2023/05/12 02:25:42;;;;;;;;;;;10.20;99.90;;;;;;5038553;28;20027;-61
2023/05/12 02:28:13;;;;;;;;;;;10.20;99.90;;;;;;5024659;28;21110;-61
2023/05/12 02:30:47;;;;;;;;;;;10.20;99.90;;;;;;5024915;28;19929;-61
2023/05/12 02:33:19;;;;;;;;;;;10.20;99.90;;;;;;5039149;28;19932;-61
2023/05/12 02:35:51;;;;;;;;;;;10.20;99.90;;;;;;5035157;28;19925;-61
2023/05/12 02:38:23;;;;;;;;;;;10.20;99.90;;;;;;5029568;28;19982;-61
2023/05/12 02:40:55;;;;;;;;;;;10.20;99.90;;;;;;5017591;28;20417;-61
2023/05/12 02:43:22;;;;;;;;;;;10.20;99.90;;;;;;5034780;28;19932;-61
2023/05/12 02:45:54;;;;;;;;;;;10.20;99.90;;;;;;5026786;28;20381;-61
2023/05/12 02:48:20;;;;;;;;;;;10.20;99.90;;;;;;5027159;28;19932;-61
2023/05/12 02:50:52;;;;;;;;;;;10.20;99.90;;;;;;5043069;28;19929;-61
2023/05/12 02:53:25;;;;;;;;;;;10.20;99.90;;;;;;5034454;28;20132;-61
2023/05/12 02:55:57;;;;;;;;;;;10.20;99.90;;;;;;5030551;28;20293;-61
2023/05/12 02:58:24;;;;;;;;;;;10.20;99.90;;;;;;5025926;28;19929;-60
2023/05/12 03:00:56;;;;;;;;;;;10.20;99.90;;;;;;5032429;28;19925;-61
2023/05/12 03:03:27;;;;;;;;;;;10.20;99.90;;;;;;5026024;28;19935;-61
2023/05/12 03:05:59;;;;;;;;;;;10.20;99.90;;;;;;5034677;28;19932;-61
2023/05/12 03:08:31;;;;;;;;;;;10.20;99.90;;;;;;5028721;28;19994;-61
2023/05/12 03:11:03;;;;;;;;;;;10.20;99.90;;;;;;5037930;28;19925;-61
2023/05/12 03:13:35;;;;;;;;;;;10.20;99.90;;;;;;5019306;28;19932;-61
2023/05/12 03:16:06;;;;;;;;;;;10.20;99.90;;;;;;5029080;28;19928;-61
2023/05/12 03:18:38;;;;;;;;;;;10.20;99.90;;;;;;5036350;28;19932;-61
2023/05/12 03:21:10;;;;;;;;;;;10.20;99.90;;;;;;5020103;28;19928;-61
2023/05/12 03:23:41;;;;;;;;;;;10.20;99.90;;;;;;5024448;28;20293;-61
2023/05/12 03:26:13;;;;;;;;;;;10.10;99.90;;;;;;5024383;28;19932;-61
2023/05/12 03:28:45;;;;;;;;;;;10.20;99.90;;;;;;5044095;28;20003;-61
2023/05/12 03:31:11;;;;;;;;;;;10.20;99.90;;;;;;5035460;28;19924;-61
2023/05/12 03:33:44;;;;;;;;;;;10.20;99.90;;;;;;5024158;28;19929;-61
2023/05/12 03:36:15;;;;;;;;;;;10.20;99.90;;;;;;5016677;28;19929;-61
2023/05/12 03:38:47;;;;;;;;;;;10.20;99.90;;;;;;5033171;28;19925;-61
2023/05/12 03:41:19;;;;;;;;;;;10.20;99.90;;;;;;5021749;28;19933;-61
2023/05/12 03:43:51;;;;;;;;;;;10.20;99.90;;;;;;5038171;28;19928;-61
2023/05/12 03:46:22;;;;;;;;;;;10.10;99.90;;;;;;5034314;28;20312;-61
2023/05/12 03:48:49;;;;;;;;;;;10.10;99.90;;;;;;5040416;28;19926;-60
2023/05/12 03:51:16;;;;;;;;;;;10.20;99.90;;;;;;5033679;28;19972;-61
2023/05/12 03:53:50;;;;;;;;;;;10.20;99.90;;;;;;5042532;28;20297;-61
2023/05/12 03:56:21;;;;;;;;;;;10.20;99.90;;;;;;5041564;28;19935;-61
2023/05/12 03:58:53;;;;;;;;;;;10.20;99.90;;;;;;5022078;28;19931;-61
2023/05/12 04:01:25;;;;;;;;;;;10.30;99.90;;;;;;5042142;28;19941;-61
2023/05/12 04:03:57;;;;;;;;;;;10.30;99.90;;;;;;5037681;28;20121;-61
2023/05/12 04:06:23;;;;;;;;;;;10.30;99.90;;;;;;5021433;28;19929;-60
2023/05/12 04:08:56;;;;;;;;;;;10.30;99.90;;;;;;5029946;28;19925;-61
2023/05/12 04:11:23;;;;;;;;;;;10.30;99.90;;;;;;5028229;28;20039;-61
2023/05/12 04:13:55;;;;;;;;;;;10.30;99.90;;;;;;5016037;28;20431;-61
2023/05/12 04:16:27;;;;;;;;;;;10.30;99.90;;;;;;5047911;28;19956;-61
2023/05/12 04:18:59;;;;;;;;;;;10.30;99.90;;;;;;5028100;28;19932;-61
2023/05/12 04:21:31;;;;;;;;;;;10.30;99.90;;;;;;5034362;28;19932;-61
2023/05/12 04:24:03;;;;;;;;;;;10.30;99.90;;;;;;5017146;28;19925;-61
2023/05/12 04:26:36;;;;;;;;;;;10.30;99.90;;;;;;5023088;28;19925;-61
2023/05/12 04:29:08;;;;;;;;;;;10.30;99.90;;;;;;5038654;28;19925;-61
2023/05/12 04:31:39;;;;;;;;;;;10.20;99.90;;;;;;5018666;28;19925;-61
2023/05/12 04:34:11;;;;;;;;;;;10.30;99.90;;;;;;5035665;28;19924;-62
2023/05/12 04:36:43;;;;;;;;;;;10.30;99.90;;;;;;5031977;28;19979;-62
2023/05/12 04:39:14;;;;;;;;;;;10.30;99.90;;;;;;5030941;28;19929;-62
2023/05/12 04:41:46;;;;;;;;;;;10.30;99.90;;;;;;5030708;28;19928;-61
2023/05/12 04:44:13;;;;;;;;;;;10.30;99.90;;;;;;5035073;28;19935;-61
2023/05/12 04:46:45;;;;;;;;;;;10.30;99.90;;;;;;5016236;28;19957;-61
2023/05/12 04:49:17;;;;;;;;;;;10.30;99.90;;;;;;5032190;28;19932;-61
2023/05/12 04:51:43;;;;;;;;;;;10.40;99.90;;;;;;5036269;28;20312;-61
2023/05/12 04:54:10;;;;;;;;;;;10.40;99.90;;;;;;5048599;28;19925;-61
2023/05/12 04:56:42;;;;;;;;;;;10.40;99.90;;;;;;5032488;28;19925;-61
2023/05/12 04:59:09;;;;;;;;;;;10.40;99.90;;;;;;5030517;28;19975;-61
2023/05/12 05:01:41;;;;;;;;;;;10.40;99.90;;;;;;5023380;28;19925;-61
2023/05/12 05:04:13;;;;;;;;;;;10.30;99.90;;;;;;5026658;28;19928;-61
2023/05/12 05:06:45;;;;;;;;;;;10.30;99.90;;;;;;5044229;28;20304;-61
2023/05/12 05:09:18;;;;;;;;;;;10.40;99.90;;;;;;5048279;28;19929;-61
2023/05/12 05:11:49;;;;;;;;;;;10.30;99.90;;;;;;5046080;28;19928;-61
2023/05/12 05:14:21;;;;;;;;;;;10.30;99.90;;;;;;5030377;28;20355;-61
2023/05/12 05:16:55;;;;;;;;;;;10.30;99.90;;;;;;5032244;28;19952;-61
2023/05/12 05:19:27;;;;;;;;;;;10.40;99.90;;;;;;5023888;28;20015;-61
2023/05/12 05:21:59;;;;;;;;;;;10.30;99.90;;;;;;5035083;28;19975;-61
2023/05/12 05:24:32;;;;;;;;;;;10.40;99.90;;;;;;5042356;28;19928;-61
2023/05/12 05:26:58;;;;;;;;;;;10.40;99.90;;;;;;5033668;28;19936;-61
2023/05/12 05:29:30;;;;;;;;;;;10.40;99.90;;;;;;5044162;28;20416;-61
2023/05/12 05:31:57;;;;;;;;;;;10.40;99.90;;;;;;5032031;28;19929;-61
2023/05/12 05:34:29;;;;;;;;;;;10.50;99.90;;;;;;5028262;28;19929;-61
2023/05/12 05:37:01;;;;;;;;;;;10.50;99.90;;;;;;5017038;28;20270;-61
2023/05/12 05:39:32;;;;;;;;;;;10.50;99.90;;;;;;5044080;28;19987;-61
2023/05/12 05:42:07;;;;;;;;;;;10.50;99.90;;;;;;5030094;28;19928;-61
2023/05/12 05:44:39;;;;;;;;;;;10.40;99.90;;;;;;5035891;28;20015;-61
2023/05/12 05:47:12;;;;;;;;;;;10.50;99.90;;;;;;5028182;28;19972;-61
2023/05/12 05:49:43;;;;;;;;;;;10.40;99.90;;;;;;5037415;28;19956;-61
2023/05/12 05:52:16;;;;;;;;;;;10.40;99.90;;;;;;5025627;28;19925;-61
2023/05/12 05:54:47;;;;;;;;;;;10.40;99.90;;;;;;5026164;28;19933;-61
2023/05/12 05:57:15;;;;;;;;;;;10.40;99.90;;;;;;5019169;28;19952;-61
2023/05/12 05:59:47;;;;;;;;;;;10.30;99.90;;;;;;5043185;28;20019;-61
2023/05/12 06:02:22;;;;;;;;;;;10.30;99.90;;;;;;5017688;28;19931;-61
2023/05/12 06:04:53;;;;;;;;;;;10.30;99.90;;;;;;5028975;28;19967;-61
2023/05/12 06:07:25;;;;;;;;;;;10.30;99.90;;;;;;5025818;28;20287;-61
2023/05/12 06:09:57;;;;;;;;;;;10.30;99.90;;;;;;5033563;28;19926;-61
2023/05/12 06:12:28;;;;;;;;;;;10.30;99.90;;;;;;5022265;28;19926;-61
2023/05/12 06:15:00;;;;;;;;;;;10.40;99.90;;;;;;5041054;28;19925;-61
2023/05/12 06:17:32;;;;;;;;;;;10.30;99.90;;;;;;5025253;28;19924;-61
2023/05/12 06:20:05;;;;;;;;;;;10.40;99.90;;;;;;5023986;28;19925;-61
2023/05/12 06:22:37;;;;;;;;;;;10.40;99.90;;;;;;5041558;28;20353;-61
2023/05/12 06:25:10;;;;;;;;;;;10.40;99.90;;;;;;5030028;28;20286;-61
2023/05/12 06:27:42;;;;;;;;;;;10.40;99.90;;;;;;5041469;28;19925;-61
2023/05/12 06:30:14;;;;;;;;;;;10.50;99.90;;;;;;5029937;28;19935;-61
2023/05/12 06:32:45;;;;;;;;;;;10.50;99.90;;;;;;5040101;28;19972;-61
2023/05/12 06:35:12;;;;;;;;;;;10.50;99.90;;;;;;5027923;28;19948;-61
2023/05/12 06:37:48;;;;;;;;;;;10.60;99.90;;;;;;5037345;28;19932;-61
2023/05/12 06:40:20;;;;;;;;;;;10.60;99.90;;;;;;5037131;28;19929;-61
2023/05/12 06:42:52;;;;;;;;;;;10.60;99.90;;;;;;5024911;28;20380;-61
2023/05/12 06:45:25;;;;;;;;;;;10.70;99.90;;;;;;5030969;28;19964;-62
2023/05/12 06:47:58;;;;;;;;;;;10.70;99.90;;;;;;5034781;28;19929;-61
2023/05/12 06:50:30;;;;;;;;;;;10.80;99.90;;;;;;5045716;28;20019;-61
2023/05/12 06:53:04;;;;;;;;;;;10.90;99.90;;;;;;5028584;28;19979;-61
2023/05/12 06:55:36;;;;;;;;;;;11.00;99.90;;;;;;5026542;28;19925;-61
2023/05/12 06:58:07;;;;;;;;;;;11.00;99.90;;;;;;5035668;28;20357;-61
2023/05/12 07:00:39;;;;;;;;;;;11.10;99.90;;;;;;5038874;28;19925;-61
2023/05/12 07:03:11;;;;;;;;;;;11.10;99.90;;;;;;5038806;28;19925;-61
2023/05/12 07:05:38;;;;;;;;;;;11.10;99.90;;;;;;5041176;28;19979;-61
2023/05/12 07:08:10;;;;;;;;;;;11.20;99.90;;;;;;5035500;28;19924;-61
2023/05/12 07:10:41;;;;;;;;;;;11.30;99.90;;;;;;5045017;28;19932;-61
2023/05/12 07:13:13;;;;;;;;;;;11.30;99.90;;;;;;5045458;28;19924;-61
2023/05/12 07:15:45;;;;;;;;;;;11.30;99.90;;;;;;5044983;28;19949;-61
2023/05/12 07:18:12;;;;;;;;;;;11.40;99.90;;;;;;5042454;28;19932;-61
2023/05/12 07:20:45;;;;;;;;;;;11.40;99.90;;;;;;5044274;28;19925;-61
2023/05/12 07:23:17;;;;;;;;;;;11.50;99.90;;;;;;5042891;28;19925;-61
2023/05/12 07:25:48;;;;;;;;;;;11.50;99.90;;;;;;5035451;28;19929;-61
2023/05/12 07:28:20;;;;;;;;;;;11.60;99.90;;;;;;5039369;28;19929;-61
2023/05/12 07:30:51;;;;;;;;;;;11.60;99.90;;;;;;5051522;28;19929;-61
2023/05/12 07:33:24;;;;;;;;;;;11.60;99.90;;;;;;5050345;28;19925;-61
2023/05/12 07:35:50;;;;;;;;;;;11.50;99.90;;;;;;5046880;28;19929;-61
2023/05/12 07:38:22;;;;;;;;;;;11.60;99.90;;;;;;5048800;28;19925;-61
2023/05/12 07:40:54;;;;;;;;;;;11.70;99.90;;;;;;5043922;28;19929;-61
2023/05/12 07:43:26;;;;;;;;;;;11.70;99.90;;;;;;5042988;28;19925;-61
2023/05/12 07:45:59;;;;;;;;;;;11.70;99.90;;;;;;5022702;28;19924;-61
2023/05/12 07:48:31;;;;;;;;;;;11.70;99.90;;;;;;5022383;28;19929;-61
2023/05/12 07:51:03;;;;;;;;;;;11.70;99.90;;;;;;5042587;28;19925;-61
2023/05/12 07:53:34;;;;;;;;;;;11.70;99.90;;;;;;5048527;28;19925;-61
2023/05/12 07:56:07;;;;;;;;;;;11.70;99.90;;;;;;5046095;28;19988;-61
2023/05/12 07:58:38;;;;;;;;;;;11.70;99.90;;;;;;5009300;28;19925;-61
2023/05/12 08:01:10;;;;;;;;;;;11.70;99.90;;;;;;5047833;28;19932;-61
2023/05/12 08:03:41;;;;;;;;;;;11.80;99.90;;;;;;5047801;28;19970;-61
2023/05/12 08:06:13;;;;;;;;;;;11.90;99.90;;;;;;5047641;28;19929;-61
2023/05/12 08:08:45;;;;;;;;;;;11.90;99.90;;;;;;5045031;28;19925;-61
2023/05/12 08:11:17;;;;;;;;;;;12.00;99.90;;;;;;5048232;28;19947;-61
2023/05/12 08:13:48;;;;;;;;;;;12.10;99.90;;;;;;5050780;28;19951;-61
2023/05/12 08:16:15;;;;;;;;;;;12.20;99.90;;;;;;5015347;28;19932;-61
2023/05/12 08:18:47;;;;;;;;;;;12.30;99.90;;;;;;5042891;28;20356;-61
2023/05/12 08:21:18;;;;;;;;;;;12.40;99.90;;;;;;5038904;28;19933;-61
2023/05/12 08:23:50;;;;;;;;;;;12.40;99.90;;;;;;5027552;28;19933;-61
2023/05/12 08:26:23;;;;;;;;;;;12.50;99.90;;;;;;5044861;28;19936;-61
2023/05/12 08:28:55;;;;;;;;;;;12.50;99.90;;;;;;5029297;28;20516;-61
2023/05/12 08:31:27;;;;;;;;;;;12.50;99.90;;;;;;5045968;28;20389;-61
2023/05/12 08:33:58;;;;;;;;;;;12.50;99.90;;;;;;5031863;28;20348;-61
2023/05/12 08:36:30;;;;;;;;;;;12.60;99.90;;;;;;5044708;28;19929;-61
2023/05/12 08:39:02;;;;;;;;;;;12.50;99.90;;;;;;5023371;28;19925;-61
2023/05/12 08:41:40;;;;;;;;;;;12.60;99.90;;;;;;5043285;28;19929;-61
2023/05/12 08:44:07;;;;;;;;;;;12.60;99.90;;;;;;5042260;28;20614;-61
2023/05/12 08:46:34;;;;;;;;;;;12.70;99.90;;;;;;5043647;28;20447;-61
2023/05/12 08:49:08;;;;;;;;;;;12.80;99.90;;;;;;5025091;28;19925;-61
2023/05/12 08:51:35;;;;;;;;;;;12.80;99.90;;;;;;5044154;28;19948;-61
2023/05/12 08:54:07;;;;;;;;;;;12.90;99.90;;;;;;5028311;28;19925;-61
2023/05/12 08:56:39;;;;;;;;;;;13.00;99.90;;;;;;5049320;28;20450;-61
2023/05/12 08:59:12;;;;;;;;;;;13.10;99.90;;;;;;5044560;28;19940;-61
2023/05/12 09:01:46;;;;;;;;;;;13.20;99.90;;;;;;5044206;28;19932;-61
2023/05/12 09:04:16;;;;;;;;;;;13.30;99.90;;;;;;5042065;28;20381;-61
2023/05/12 09:06:47;;;;;;;;;;;13.30;99.90;;;;;;5040386;28;19925;-61
2023/05/12 09:09:19;;;;;;;;;;;13.40;99.90;;;;;;5030079;28;19928;-61
2023/05/12 09:11:53;;;;;;;;;;;13.40;99.90;;;;;;5040047;28;19929;-61
2023/05/12 09:14:25;;;;;;;;;;;13.40;99.90;;;;;;5041020;28;19925;-61
2023/05/12 09:17:02;;;;;;;;;;;13.30;99.90;;;;;;5043325;28;19929;-61
2023/05/12 09:19:34;;;;;;;;;;;13.40;99.90;;;;;;5029193;28;19982;-61
2023/05/12 09:22:07;;;;;;;;;;;13.50;99.90;;;;;;5044098;28;19929;-61
2023/05/12 09:24:36;;;;;;;;;;;13.50;99.90;;;;;;5043234;28;19925;-61
2023/05/12 09:27:03;;;;;;;;;;;13.60;99.90;;;;;;5028480;28;20415;-61
2023/05/12 09:29:35;;;;;;;;;;;13.60;99.90;;;;;;5024725;28;19929;-61
2023/05/12 09:32:06;;;;;;;;;;;13.70;99.90;;;;;;5036627;28;19925;-61
2023/05/12 09:34:39;;;;;;;;;;;13.60;99.90;;;;;;5021695;28;20413;-61
2023/05/12 09:37:06;;;;;;;;;;;13.70;99.90;;;;;;5040871;28;19979;-61
2023/05/12 09:39:38;;;;;;;;;;;13.70;99.90;;;;;;5044534;28;19929;-61
2023/05/12 09:42:11;;;;;;;;;;;13.70;99.90;;;;;;5049359;28;20413;-61
2023/05/12 09:44:43;;;;;;;;;;;13.70;99.90;;;;;;5043360;28;19947;-60
2023/05/12 09:47:16;;;;;;;;;;;13.80;99.90;;;;;;5008084;28;19936;-61
2023/05/12 09:49:50;;;;;;;;;;;13.80;99.90;;;;;;5042866;28;19931;-61
2023/05/12 09:52:22;;;;;;;;;;;13.80;99.90;;;;;;5039763;28;19937;-61
2023/05/12 09:54:54;;;;;;;;;;;13.90;99.90;;;;;;5032833;28;19938;-61
2023/05/12 09:57:26;;;;;;;;;;;13.90;99.90;;;;;;5036993;28;19925;-61
2023/05/12 09:59:57;;;;;;;;;;;13.90;99.90;;;;;;5038142;28;19999;-61
2023/05/12 10:02:24;;;;;;;;;;;14.00;99.90;;;;;;5023242;28;19939;-61
2023/05/12 10:04:59;;;;;;;;;;;14.10;99.90;;;;;;5024269;28;19928;-61
2023/05/12 10:07:31;;;;;;;;;;;14.20;99.90;;;;;;5042076;28;19936;-61
2023/05/12 10:10:04;;;;;;;;;;;14.30;99.90;;;;;;5042452;28;19931;-61
2023/05/12 10:12:36;;;;;;;;;;;14.30;99.90;;;;;;5039497;28;19931;-61
2023/05/12 10:15:08;;;;;;;;;;;14.30;99.90;;;;;;5042916;28;19925;-61
2023/05/12 10:17:41;;;;;;;;;;;14.40;99.90;;;;;;5040303;28;20436;-61
2023/05/12 10:20:14;;;;;;;;;;;14.40;99.90;;;;;;5026380;28;19929;-61
2023/05/12 10:22:47;;;;;;;;;;;14.50;99.90;;;;;;5025341;28;19933;-61
2023/05/12 10:25:19;;;;;;;;;;;14.60;99.90;;;;;;5045730;28;19928;-61
2023/05/12 10:27:52;;;;;;;;;;;14.70;99.90;;;;;;5032931;28;19929;-61
2023/05/12 10:30:24;;;;;;;;;;;14.80;99.90;;;;;;5047775;28;19928;-61
2023/05/12 10:32:56;;;;;;;;;;;14.70;99.90;;;;;;5049450;28;19929;-61
2023/05/12 10:35:34;;;;;;;;;;;14.70;99.90;;;;;;5046932;28;19948;-61
2023/05/12 10:38:08;;;;;;;;;;;14.70;99.90;;;;;;5035927;28;20312;-61
2023/05/12 10:40:53;;;;;;;;;;;14.80;99.90;;;;;;5040966;28;20317;-61
2023/05/12 10:43:31;;;;;;;;;;;14.80;99.90;;;;;;5039710;28;19969;-61
2023/05/12 10:46:17;;;;;;;;;;;14.80;99.90;;;;;;5036659;28;19936;-60
2023/05/12 10:48:53;;;;;;;;;;;14.70;99.90;;;;;;5049790;28;19928;-61
2023/05/12 10:51:27;;;;;;;;;;;14.60;99.90;;;;;;5015053;28;19933;-61
2023/05/12 10:54:00;;;;;;;;;;;14.60;99.90;;;;;;5047996;28;19929;-61
2023/05/12 10:56:28;;;;;;;;;;;14.60;99.90;;;;;;5046615;28;19929;-61
2023/05/12 10:59:07;;;;;;;;;;;14.60;99.90;;;;;;5026616;28;19936;-61
2023/05/12 11:01:40;;;;;;;;;;;14.60;99.90;;;;;;5028769;28;20470;-61
2023/05/12 11:04:13;;;;;;;;;;;14.60;99.90;;;;;;5042868;28;19975;-61
2023/05/12 11:06:44;;;;;;;;;;;14.60;99.90;;;;;;5041152;28;19979;-61
2023/05/12 11:09:16;;;;;;;;;;;14.70;99.90;;;;;;5040401;28;19925;-61
2023/05/12 11:11:49;;;;;;;;;;;14.70;99.90;;;;;;5040673;28;19925;-61
2023/05/12 11:14:16;;;;;;;;;;;14.70;99.90;;;;;;5049035;28;20293;-61
2023/05/12 11:16:47;;;;;;;;;;;14.70;99.90;;;;;;5050951;28;19931;-61
2023/05/12 11:19:19;;;;;;;;;;;14.70;99.90;;;;;;5035708;28;19925;-64
2023/05/12 11:21:51;;;;;;;;;;;14.70;99.90;;;;;;5046688;28;19928;-61
2023/05/12 11:24:23;;;;;;;;;;;14.70;99.90;;;;;;5041303;28;19925;-62
2023/05/12 11:26:55;;;;;;;;;;;14.70;99.90;;;;;;5041926;28;19929;-62
2023/05/12 11:29:27;;;;;;;;;;;14.60;99.90;;;;;;5027697;28;19925;-62
2023/05/12 11:32:01;;;;;;;;;;;14.50;99.90;;;;;;5043167;28;19925;-62
2023/05/12 11:34:27;;;;;;;;;;;14.50;99.90;;;;;;5024618;28;20295;-62
2023/05/12 11:36:59;;;;;;;;;;;14.50;99.90;;;;;;5022176;28;19983;-61
2023/05/12 11:39:31;;;;;;;;;;;14.50;99.90;;;;;;5042675;28;20401;-62
2023/05/12 11:42:04;;;;;;;;;;;14.50;99.90;;;;;;5030977;28;19932;-62
2023/05/12 11:44:44;;;;;;;;;;;14.40;99.90;;;;;;5032282;28;19925;-62
2023/05/12 11:47:18;;;;;;;;;;;14.40;99.90;;;;;;5043554;28;19929;-62
2023/05/12 11:49:53;;;;;;;;;;;14.30;99.90;;;;;;5028462;28;19929;-62
2023/05/12 11:52:25;;;;;;;;;;;14.20;99.90;;;;;;5045120;28;19939;-62
2023/05/12 11:54:59;;;;;;;;;;;14.20;99.90;;;;;;5043260;28;19952;-62
2023/05/12 11:57:31;;;;;;;;;;;14.10;99.90;;;;;;5033739;28;19928;-62
2023/05/12 12:00:05;;;;;;;;;;;14.00;99.90;;;;;;5037036;28;19945;-62
2023/05/12 12:02:38;;;;;;;;;;;14.00;99.90;;;;;;5028034;28;20298;-62
2023/05/12 12:05:16;;;;;;;;;;;14.00;99.90;;;;;;5041499;28;19933;-62
2023/05/12 12:07:48;;;;;;;;;;;14.00;99.90;;;;;;5043413;28;19936;-62
2023/05/12 12:10:20;;;;;;;;;;;14.00;99.90;;;;;;5045437;28;19931;-61
2023/05/12 12:12:52;;;;;;;;;;;13.90;99.90;;;;;;5046097;28;19933;-62
2023/05/12 12:15:19;;;;;;;;;;;14.00;99.90;;;;;;5028617;28;19937;-62
2023/05/12 12:17:50;;;;;;;;;;;14.00;99.90;;;;;;5029884;28;19925;-62
2023/05/12 12:20:23;;;;;;;;;;;13.90;99.90;;;;;;5044176;28;20006;-62
2023/05/12 12:22:55;;;;;;;;;;;13.90;99.90;;;;;;5042576;28;19984;-64
2023/05/12 12:25:27;;;;;;;;;;;14.00;99.90;;;;;;5020892;28;19929;-64
2023/05/12 12:27:59;;;;;;;;;;;14.00;99.90;;;;;;5037233;28;19989;-64
2023/05/12 12:30:26;;;;;;;;;;;14.00;99.90;;;;;;5040914;28;19924;-62
2023/05/12 12:32:58;;;;;;;;;;;14.00;99.90;;;;;;5022861;28;19944;-62
2023/05/12 12:35:30;;;;;;;;;;;14.00;99.90;;;;;;5039985;28;19936;-62
2023/05/12 12:38:01;;;;;;;;;;;14.00;99.90;;;;;;5033686;28;20369;-62
2023/05/12 12:40:33;;;;;;;;;;;14.10;99.90;;;;;;5038902;28;19983;-62
2023/05/12 12:43:05;;;;;;;;;;;14.10;99.90;;;;;;5028663;28;20112;-62
2023/05/12 12:45:36;;;;;;;;;;;14.10;99.90;;;;;;5038135;28;19971;-62
2023/05/12 12:48:08;;;;;;;;;;;14.10;99.90;;;;;;5035119;28;19928;-62
2023/05/12 12:50:40;;;;;;;;;;;14.10;99.90;;;;;;5031113;28;20307;-65
2023/05/12 12:53:11;;;;;;;;;;;14.10;99.90;;;;;;5049780;28;19929;-62
2023/05/12 12:55:43;;;;;;;;;;;14.20;99.90;;;;;;5042476;28;19929;-62
2023/05/12 12:58:15;;;;;;;;;;;14.20;99.90;;;;;;5027182;28;19982;-64
2023/05/12 13:00:46;;;;;;;;;;;14.20;99.90;;;;;;5041166;28;19925;-65
2023/05/12 13:03:18;;;;;;;;;;;14.20;99.90;;;;;;5043287;28;19982;-64
2023/05/12 13:05:50;;;;;;;;;;;14.10;99.90;;;;;;5040909;28;20357;-65
2023/05/12 13:08:17;;;;;;;;;;;14.10;99.90;;;;;;5038158;28;19925;-64
2023/05/12 13:10:48;;;;;;;;;;;14.10;99.90;;;;;;5034440;28;19929;-62
2023/05/12 13:13:15;;;;;;;;;;;14.00;99.90;;;;;;5041421;28;19928;-62
2023/05/12 13:15:47;;;;;;;;;;;14.00;99.90;;;;;;5037011;28;19925;-62
2023/05/12 13:18:14;;;;;;;;;;;14.00;99.90;;;;;;5039839;28;20301;-62
2023/05/12 13:20:46;;;;;;;;;;;14.00;99.90;;;;;;5043198;28;19929;-62
2023/05/12 13:23:13;;;;;;;;;;;14.00;99.90;;;;;;5042135;28;19933;-62
2023/05/12 13:25:45;;;;;;;;;;;14.00;99.90;;;;;;5025258;28;20427;-62
2023/05/12 13:28:16;;;;;;;;;;;14.00;99.90;;;;;;5042641;28;19932;-62
2023/05/12 13:30:50;;;;;;;;;;;14.00;99.90;;;;;;5027280;28;19956;-62
2023/05/12 13:33:21;;;;;;;;;;;13.90;99.90;;;;;;5014810;28;19929;-62
2023/05/12 13:35:54;;;;;;;;;;;13.90;99.90;;;;;;5019363;28;20412;-62
2023/05/12 13:38:25;;;;;;;;;;;13.90;99.90;;;;;;5031703;28;20347;-62
2023/05/12 13:40:57;;;;;;;;;;;13.80;99.90;;;;;;5036880;28;19932;-62
2023/05/12 13:43:29;;;;;;;;;;;13.80;99.90;;;;;;5024671;28;20022;-62
2023/05/12 13:45:55;;;;;;;;;;;13.90;99.90;;;;;;5030589;28;19925;-63
2023/05/12 13:48:27;;;;;;;;;;;13.90;99.90;;;;;;5046770;28;19986;-62
2023/05/12 13:50:59;;;;;;;;;;;13.90;99.90;;;;;;5045781;28;19929;-62
2023/05/12 13:53:31;;;;;;;;;;;13.80;99.90;;;;;;5046320;28;19971;-62
2023/05/12 13:56:13;;;;;;;;;;;13.80;99.90;;;;;;5024284;28;19933;-62
2023/05/12 13:58:40;;;;;;;;;;;13.70;99.90;;;;;;5047682;28;19932;-63
2023/05/12 14:01:07;;;;;;;;;;;13.70;99.90;;;;;;5049412;28;19929;-63
2023/05/12 14:03:35;;;;;;;;;;;13.70;99.90;;;;;;5048047;28;19928;-62
2023/05/12 14:06:08;;;;;;;;;;;13.70;99.90;;;;;;5025850;28;19956;-62
2023/05/12 14:08:40;;;;;;;;;;;13.60;99.90;;;;;;5046679;28;19932;-62
2023/05/12 14:11:07;;;;;;;;;;;13.60;99.90;;;;;;5030988;28;19925;-62
2023/05/12 14:13:38;;;;;;;;;;;13.50;99.90;;;;;;5035331;28;19924;-63
2023/05/12 14:16:12;;;;;;;;;;;13.50;99.90;;;;;;5042748;28;19929;-62
2023/05/12 14:18:44;;;;;;;;;;;13.50;99.90;;;;;;5042455;28;19929;-63
2023/05/12 14:21:16;;;;;;;;;;;13.50;99.90;;;;;;5021968;28;19933;-62
2023/05/12 14:23:48;;;;;;;;;;;13.40;99.90;;;;;;5038769;28;20471;-62
2023/05/12 14:26:21;;;;;;;;;;;13.40;99.90;;;;;;5035717;28;19929;-62
2023/05/12 14:28:53;;;;;;;;;;;13.30;99.90;;;;;;5042958;28;19925;-63
2023/05/12 14:31:20;;;;;;;;;;;13.30;99.90;;;;;;5051463;28;19978;-62
2023/05/12 14:33:47;;;;;;;;;;;13.30;99.90;;;;;;5048734;28;20019;-62
2023/05/12 14:36:19;;;;;;;;;;;13.20;99.90;;;;;;5039046;28;19983;-62
2023/05/12 14:38:51;;;;;;;;;;;13.20;99.90;;;;;;5042776;28;19956;-62
2023/05/12 14:41:23;;;;;;;;;;;13.20;99.90;;;;;;5043789;28;19940;-62